sensor_id;sensor_type;location;lat;lon;timestamp;temperature;humidity
3752;DHT22;50827;47.014;7.652;2023-04-07T00:00:21;8.90;99.90
3752;DHT22;50827;47.014;7.652;2023-04-07T00:02:47;9.00;99.90
3752;DHT22;50827;47.014;7.652;2023-04-07T00:05:14;8.90;99.90
3752;DHT22;50827;47.014;7.652;2023-04-07T00:07:41;8.90;99.90
3752;DHT22;50827;47.014;7.652;2023-04-07T00:10:22;8.80;99.90
3752;DHT22;50827;47.014;7.652;2023-04-07T00:12:49;8.80;99.90
3752;DHT22;50827;47.014;7.652;2023-04-07T00:15:15;8.70;99.90
3752;DHT22;50827;47.014;7.652;2023-04-07T00:17:42;8.70;99.90
3752;DHT22;50827;47.014;7.652;2023-04-07T00:20:09;8.60;99.90
3752;DHT22;50827;47.014;7.652;2023-04-07T00:22:36;8.60;99.90
3752;DHT22;50827;47.014;7.652;2023-04-07T00:25:03;8.70;99.90
3752;DHT22;50827;47.014;7.652;2023-04-07T00:27:30;8.60;99.90
3752;DHT22;50827;47.014;7.652;2023-04-07T00:29:56;8.60;99.90
3752;DHT22;50827;47.014;7.652;2023-04-07T00:32:23;8.50;99.90
3752;DHT22;50827;47.014;7.652;2023-04-07T00:34:49;8.50;99.90
3752;DHT22;50827;47.014;7.652;2023-04-07T00:37:16;8.60;99.90
3752;DHT22;50827;47.014;7.652;2023-04-07T00:39:44;8.60;99.90
3752;DHT22;50827;47.014;7.652;2023-04-07T00:42:12;8.60;99.90
3752;DHT22;50827;47.014;7.652;2023-04-07T00:44:38;8.70;99.90
3752;DHT22;50827;47.014;7.652;2023-04-07T00:47:05;8.70;99.90
3752;DHT22;50827;47.014;7.652;2023-04-07T00:49:32;8.80;99.90
3752;DHT22;50827;47.014;7.652;2023-04-07T00:51:59;8.80;99.90
3752;DHT22;50827;47.014;7.652;2023-04-07T00:54:26;8.80;99.90
3752;DHT22;50827;47.014;7.652;2023-04-07T00:56:53;8.80;99.90
3752;DHT22;50827;47.014;7.652;2023-04-07T00:59:19;8.80;99.90
3752;DHT22;50827;47.014;7.652;2023-04-07T01:01:54;8.80;99.90
3752;DHT22;50827;47.014;7.652;2023-04-07T01:04:29;8.80;99.90
3752;DHT22;50827;47.014;7.652;2023-04-07T01:10:05;8.80;99.90
3752;DHT22;50827;47.014;7.652;2023-04-07T01:15:20;8.80;99.90
3752;DHT22;50827;47.014;7.652;2023-04-07T01:17:54;8.70;99.90
3752;DHT22;50827;47.014;7.652;2023-04-07T01:20:26;8.70;99.90
3752;DHT22;50827;47.014;7.652;2023-04-07T01:22:57;8.60;99.90
3752;DHT22;50827;47.014;7.652;2023-04-07T01:30:32;8.70;99.90
3752;DHT22;50827;47.014;7.652;2023-04-07T01:33:01;8.70;99.90
3752;DHT22;50827;47.014;7.652;2023-04-07T01:35:32;8.70;99.90
3752;DHT22;50827;47.014;7.652;2023-04-07T01:38:00;8.60;99.90
3752;DHT22;50827;47.014;7.652;2023-04-07T01:40:28;8.60;99.90
3752;DHT22;50827;47.014;7.652;2023-04-07T01:42:56;8.50;99.90
3752;DHT22;50827;47.014;7.652;2023-04-07T01:45:23;8.40;99.90
3752;DHT22;50827;47.014;7.652;2023-04-07T01:47:52;8.40;99.90
3752;DHT22;50827;47.014;7.652;2023-04-07T01:50:20;8.30;99.90
3752;DHT22;50827;47.014;7.652;2023-04-07T01:52:48;8.30;99.90
3752;DHT22;50827;47.014;7.652;2023-04-07T01:55:14;8.30;99.90
3752;DHT22;50827;47.014;7.652;2023-04-07T01:57:41;8.20;99.90
3752;DHT22;50827;47.014;7.652;2023-04-07T02:00:09;8.20;99.90
3752;DHT22;50827;47.014;7.652;2023-04-07T02:02:40;8.20;99.90
3752;DHT22;50827;47.014;7.652;2023-04-07T02:05:14;8.20;99.90
3752;DHT22;50827;47.014;7.652;2023-04-07T02:08:00;8.10;99.90
3752;DHT22;50827;47.014;7.652;2023-04-07T02:10:28;8.10;99.90
3752;DHT22;50827;47.014;7.652;2023-04-07T02:12:55;8.00;99.90
3752;DHT22;50827;47.014;7.652;2023-04-07T02:15:24;8.00;99.90
3752;DHT22;50827;47.014;7.652;2023-04-07T02:17:52;8.00;99.90
3752;DHT22;50827;47.014;7.652;2023-04-07T02:20:20;8.00;99.90
3752;DHT22;50827;47.014;7.652;2023-04-07T02:22:47;7.90;99.90
3752;DHT22;50827;47.014;7.652;2023-04-07T02:27:52;7.90;99.90
3752;DHT22;50827;47.014;7.652;2023-04-07T02:30:19;7.80;99.90
3752;DHT22;50827;47.014;7.652;2023-04-07T02:32:46;7.80;99.90
3752;DHT22;50827;47.014;7.652;2023-04-07T02:35:14;7.70;99.90
3752;DHT22;50827;47.014;7.652;2023-04-07T02:37:42;7.70;99.90
3752;DHT22;50827;47.014;7.652;2023-04-07T02:40:09;7.60;99.90
3752;DHT22;50827;47.014;7.652;2023-04-07T02:42:35;7.60;99.90
3752;DHT22;50827;47.014;7.652;2023-04-07T02:45:04;7.50;99.90
3752;DHT22;50827;47.014;7.652;2023-04-07T02:47:31;7.40;99.90
3752;DHT22;50827;47.014;7.652;2023-04-07T02:49:58;7.30;99.90
3752;DHT22;50827;47.014;7.652;2023-04-07T02:52:25;7.20;99.90
3752;DHT22;50827;47.014;7.652;2023-04-07T02:54:51;7.10;99.90
3752;DHT22;50827;47.014;7.652;2023-04-07T02:57:18;7.10;99.90
3752;DHT22;50827;47.014;7.652;2023-04-07T02:59:45;7.10;99.90
3752;DHT22;50827;47.014;7.652;2023-04-07T03:02:12;7.10;99.90
3752;DHT22;50827;47.014;7.652;2023-04-07T03:04:39;7.00;99.90
3752;DHT22;50827;47.014;7.652;2023-04-07T03:07:05;7.00;99.90
3752;DHT22;50827;47.014;7.652;2023-04-07T03:09:32;7.00;99.90
3752;DHT22;50827;47.014;7.652;2023-04-07T03:11:59;7.00;99.90
3752;DHT22;50827;47.014;7.652;2023-04-07T03:14:25;7.00;99.90
3752;DHT22;50827;47.014;7.652;2023-04-07T03:16:52;7.00;99.90
3752;DHT22;50827;47.014;7.652;2023-04-07T03:19:19;6.90;99.90
3752;DHT22;50827;47.014;7.652;2023-04-07T03:21:45;6.90;99.90
3752;DHT22;50827;47.014;7.652;2023-04-07T03:24:12;6.90;99.90
3752;DHT22;50827;47.014;7.652;2023-04-07T03:26:39;6.80;99.90
3752;DHT22;50827;47.014;7.652;2023-04-07T03:29:06;6.90;99.90
3752;DHT22;50827;47.014;7.652;2023-04-07T03:31:32;6.80;99.90
3752;DHT22;50827;47.014;7.652;2023-04-07T03:33:59;6.90;99.90
3752;DHT22;50827;47.014;7.652;2023-04-07T03:36:25;6.90;99.90
3752;DHT22;50827;47.014;7.652;2023-04-07T03:38:53;6.90;99.90
3752;DHT22;50827;47.014;7.652;2023-04-07T03:41:20;6.90;99.90
3752;DHT22;50827;47.014;7.652;2023-04-07T03:43:46;6.90;99.90
3752;DHT22;50827;47.014;7.652;2023-04-07T03:46:13;6.80;99.90
3752;DHT22;50827;47.014;7.652;2023-04-07T03:48:40;6.70;99.90
3752;DHT22;50827;47.014;7.652;2023-04-07T03:51:06;6.60;99.90
3752;DHT22;50827;47.014;7.652;2023-04-07T03:53:33;6.60;99.90
3752;DHT22;50827;47.014;7.652;2023-04-07T03:56:00;6.60;99.90
3752;DHT22;50827;47.014;7.652;2023-04-07T03:58:27;6.60;99.90
3752;DHT22;50827;47.014;7.652;2023-04-07T04:00:53;6.60;99.90
3752;DHT22;50827;47.014;7.652;2023-04-07T04:03:20;6.60;99.90
3752;DHT22;50827;47.014;7.652;2023-04-07T04:05:47;6.60;99.90
3752;DHT22;50827;47.014;7.652;2023-04-07T04:08:14;6.60;99.90
3752;DHT22;50827;47.014;7.652;2023-04-07T04:10:40;6.60;99.90
3752;DHT22;50827;47.014;7.652;2023-04-07T04:13:07;6.60;99.90
3752;DHT22;50827;47.014;7.652;2023-04-07T04:15:34;6.50;99.90
3752;DHT22;50827;47.014;7.652;2023-04-07T04:18:00;6.50;99.90
3752;DHT22;50827;47.014;7.652;2023-04-07T04:20:27;6.50;99.90
3752;DHT22;50827;47.014;7.652;2023-04-07T04:22:54;6.60;99.90
3752;DHT22;50827;47.014;7.652;2023-04-07T04:25:20;6.60;99.90
3752;DHT22;50827;47.014;7.652;2023-04-07T04:27:47;6.60;99.90
3752;DHT22;50827;47.014;7.652;2023-04-07T04:30:13;6.60;99.90
3752;DHT22;50827;47.014;7.652;2023-04-07T04:32:40;6.60;99.90
3752;DHT22;50827;47.014;7.652;2023-04-07T04:35:07;6.60;99.90
3752;DHT22;50827;47.014;7.652;2023-04-07T04:37:34;6.60;99.90
3752;DHT22;50827;47.014;7.652;2023-04-07T04:40:00;6.60;99.90
3752;DHT22;50827;47.014;7.652;2023-04-07T04:42:27;6.70;99.90
3752;DHT22;50827;47.014;7.652;2023-04-07T04:44:54;6.60;99.90
3752;DHT22;50827;47.014;7.652;2023-04-07T04:47:21;6.60;99.90
3752;DHT22;50827;47.014;7.652;2023-04-07T04:49:48;6.60;99.90
3752;DHT22;50827;47.014;7.652;2023-04-07T04:52:14;6.50;99.90
3752;DHT22;50827;47.014;7.652;2023-04-07T04:54:41;6.50;99.90
3752;DHT22;50827;47.014;7.652;2023-04-07T04:57:07;6.50;99.90
3752;DHT22;50827;47.014;7.652;2023-04-07T04:59:34;6.50;99.90
3752;DHT22;50827;47.014;7.652;2023-04-07T05:02:01;6.50;99.90
3752;DHT22;50827;47.014;7.652;2023-04-07T05:04:27;6.50;99.90
3752;DHT22;50827;47.014;7.652;2023-04-07T05:06:55;6.50;99.90
3752;DHT22;50827;47.014;7.652;2023-04-07T05:09:21;6.50;99.90
3752;DHT22;50827;47.014;7.652;2023-04-07T05:11:48;6.40;99.90
3752;DHT22;50827;47.014;7.652;2023-04-07T05:14:15;6.40;99.90
3752;DHT22;50827;47.014;7.652;2023-04-07T05:16:41;6.40;99.90
3752;DHT22;50827;47.014;7.652;2023-04-07T05:19:08;6.40;99.90
3752;DHT22;50827;47.014;7.652;2023-04-07T05:21:35;6.40;99.90
3752;DHT22;50827;47.014;7.652;2023-04-07T05:24:01;6.30;99.90
3752;DHT22;50827;47.014;7.652;2023-04-07T05:26:28;6.40;99.90
3752;DHT22;50827;47.014;7.652;2023-04-07T05:28:55;6.40;99.90
3752;DHT22;50827;47.014;7.652;2023-04-07T05:31:22;6.50;99.90
3752;DHT22;50827;47.014;7.652;2023-04-07T05:33:48;6.40;99.90
3752;DHT22;50827;47.014;7.652;2023-04-07T05:36:15;6.50;99.90
3752;DHT22;50827;47.014;7.652;2023-04-07T05:38:42;6.50;99.90
3752;DHT22;50827;47.014;7.652;2023-04-07T05:41:09;6.50;99.90
3752;DHT22;50827;47.014;7.652;2023-04-07T05:43:36;6.50;99.90
3752;DHT22;50827;47.014;7.652;2023-04-07T05:46:02;6.40;99.90
3752;DHT22;50827;47.014;7.652;2023-04-07T05:48:29;6.40;99.90
3752;DHT22;50827;47.014;7.652;2023-04-07T05:50:56;6.40;99.90
3752;DHT22;50827;47.014;7.652;2023-04-07T05:53:22;6.40;99.90
3752;DHT22;50827;47.014;7.652;2023-04-07T05:55:49;6.40;99.90
3752;DHT22;50827;47.014;7.652;2023-04-07T05:58:16;6.40;99.90
3752;DHT22;50827;47.014;7.652;2023-04-07T06:00:43;6.40;99.90
3752;DHT22;50827;47.014;7.652;2023-04-07T06:03:09;6.50;99.90
3752;DHT22;50827;47.014;7.652;2023-04-07T06:05:36;6.50;99.90
3752;DHT22;50827;47.014;7.652;2023-04-07T06:08:03;6.60;99.90
3752;DHT22;50827;47.014;7.652;2023-04-07T06:10:30;6.50;99.90
3752;DHT22;50827;47.014;7.652;2023-04-07T06:12:57;6.50;99.90
3752;DHT22;50827;47.014;7.652;2023-04-07T06:15:23;6.50;99.90
3752;DHT22;50827;47.014;7.652;2023-04-07T06:17:50;6.60;99.90
3752;DHT22;50827;47.014;7.652;2023-04-07T06:20:17;6.60;99.90
3752;DHT22;50827;47.014;7.652;2023-04-07T06:22:45;6.70;99.90
3752;DHT22;50827;47.014;7.652;2023-04-07T06:25:11;6.60;99.90
3752;DHT22;50827;47.014;7.652;2023-04-07T06:27:38;6.70;99.90
3752;DHT22;50827;47.014;7.652;2023-04-07T06:30:05;6.70;99.90
3752;DHT22;50827;47.014;7.652;2023-04-07T06:32:32;6.80;99.90
3752;DHT22;50827;47.014;7.652;2023-04-07T06:35:00;6.80;99.90
3752;DHT22;50827;47.014;7.652;2023-04-07T06:37:27;6.70;99.90
3752;DHT22;50827;47.014;7.652;2023-04-07T06:39:53;6.80;99.90
3752;DHT22;50827;47.014;7.652;2023-04-07T06:42:20;6.70;99.90
3752;DHT22;50827;47.014;7.652;2023-04-07T06:44:46;6.80;99.90
3752;DHT22;50827;47.014;7.652;2023-04-07T06:47:13;6.80;99.90
3752;DHT22;50827;47.014;7.652;2023-04-07T06:49:40;6.70;99.90
3752;DHT22;50827;47.014;7.652;2023-04-07T06:52:06;6.70;99.90
3752;DHT22;50827;47.014;7.652;2023-04-07T06:54:33;6.70;99.90
3752;DHT22;50827;47.014;7.652;2023-04-07T06:57:00;6.80;99.90
3752;DHT22;50827;47.014;7.652;2023-04-07T06:59:27;6.70;99.90
3752;DHT22;50827;47.014;7.652;2023-04-07T07:01:53;6.80;99.90
3752;DHT22;50827;47.014;7.652;2023-04-07T07:04:20;6.80;99.90
3752;DHT22;50827;47.014;7.652;2023-04-07T07:06:47;6.80;99.90
3752;DHT22;50827;47.014;7.652;2023-04-07T07:09:14;6.80;99.90
3752;DHT22;50827;47.014;7.652;2023-04-07T07:11:41;6.70;99.90
3752;DHT22;50827;47.014;7.652;2023-04-07T07:14:08;6.60;99.90
3752;DHT22;50827;47.014;7.652;2023-04-07T07:16:34;6.50;99.90
3752;DHT22;50827;47.014;7.652;2023-04-07T07:19:02;6.50;99.90
3752;DHT22;50827;47.014;7.652;2023-04-07T07:21:29;6.40;99.90
3752;DHT22;50827;47.014;7.652;2023-04-07T07:23:57;6.40;99.90
3752;DHT22;50827;47.014;7.652;2023-04-07T07:26:24;6.40;99.90
3752;DHT22;50827;47.014;7.652;2023-04-07T07:28:51;6.40;99.90
3752;DHT22;50827;47.014;7.652;2023-04-07T07:31:18;6.30;99.90
3752;DHT22;50827;47.014;7.652;2023-04-07T07:33:45;6.30;99.90
3752;DHT22;50827;47.014;7.652;2023-04-07T07:36:14;6.30;99.90
3752;DHT22;50827;47.014;7.652;2023-04-07T07:38:40;6.30;99.90
3752;DHT22;50827;47.014;7.652;2023-04-07T07:41:07;6.30;99.90
3752;DHT22;50827;47.014;7.652;2023-04-07T07:43:34;6.30;99.90
3752;DHT22;50827;47.014;7.652;2023-04-07T07:46:02;6.30;99.90
3752;DHT22;50827;47.014;7.652;2023-04-07T07:48:29;6.20;99.90
3752;DHT22;50827;47.014;7.652;2023-04-07T07:50:56;6.10;99.90
3752;DHT22;50827;47.014;7.652;2023-04-07T07:53:23;6.00;99.90
3752;DHT22;50827;47.014;7.652;2023-04-07T07:55:50;6.10;99.90
3752;DHT22;50827;47.014;7.652;2023-04-07T07:58:17;6.00;99.90
3752;DHT22;50827;47.014;7.652;2023-04-07T08:00:43;5.90;99.90
3752;DHT22;50827;47.014;7.652;2023-04-07T08:03:10;5.80;99.90
3752;DHT22;50827;47.014;7.652;2023-04-07T08:05:37;5.60;99.90
3752;DHT22;50827;47.014;7.652;2023-04-07T08:08:04;5.60;99.90
3752;DHT22;50827;47.014;7.652;2023-04-07T08:10:30;5.50;99.90
3752;DHT22;50827;47.014;7.652;2023-04-07T08:12:57;5.50;99.90
3752;DHT22;50827;47.014;7.652;2023-04-07T08:15:24;5.50;99.90
3752;DHT22;50827;47.014;7.652;2023-04-07T08:17:51;5.50;99.90
3752;DHT22;50827;47.014;7.652;2023-04-07T08:20:20;5.50;99.90
3752;DHT22;50827;47.014;7.652;2023-04-07T08:22:47;5.40;99.90
3752;DHT22;50827;47.014;7.652;2023-04-07T08:25:14;5.50;99.90
3752;DHT22;50827;47.014;7.652;2023-04-07T08:27:41;5.60;99.90
3752;DHT22;50827;47.014;7.652;2023-04-07T08:30:07;5.60;99.90
3752;DHT22;50827;47.014;7.652;2023-04-07T08:32:40;5.60;99.90
3752;DHT22;50827;47.014;7.652;2023-04-07T08:35:07;5.70;99.90
3752;DHT22;50827;47.014;7.652;2023-04-07T08:37:35;5.60;99.90
3752;DHT22;50827;47.014;7.652;2023-04-07T08:40:04;5.70;99.90
3752;DHT22;50827;47.014;7.652;2023-04-07T08:42:40;5.70;99.90
3752;DHT22;50827;47.014;7.652;2023-04-07T08:45:08;5.70;99.90
3752;DHT22;50827;47.014;7.652;2023-04-07T08:47:36;5.80;99.90
3752;DHT22;50827;47.014;7.652;2023-04-07T08:50:07;5.80;99.90
3752;DHT22;50827;47.014;7.652;2023-04-07T08:52:45;5.70;99.90
3752;DHT22;50827;47.014;7.652;2023-04-07T08:55:15;5.80;99.90
3752;DHT22;50827;47.014;7.652;2023-04-07T08:57:42;5.90;99.90
3752;DHT22;50827;47.014;7.652;2023-04-07T09:00:09;5.90;99.90
3752;DHT22;50827;47.014;7.652;2023-04-07T09:02:42;5.70;99.90
3752;DHT22;50827;47.014;7.652;2023-04-07T09:05:14;5.60;99.90
3752;DHT22;50827;47.014;7.652;2023-04-07T09:07:41;5.60;99.90
3752;DHT22;50827;47.014;7.652;2023-04-07T09:10:12;5.60;99.90
3752;DHT22;50827;47.014;7.652;2023-04-07T09:12:38;5.50;99.90
3752;DHT22;50827;47.014;7.652;2023-04-07T09:15:06;5.50;99.90
3752;DHT22;50827;47.014;7.652;2023-04-07T09:17:34;5.50;99.90
3752;DHT22;50827;47.014;7.652;2023-04-07T09:20:01;5.50;99.90
3752;DHT22;50827;47.014;7.652;2023-04-07T09:22:39;5.50;99.90
3752;DHT22;50827;47.014;7.652;2023-04-07T09:25:20;5.50;99.90
3752;DHT22;50827;47.014;7.652;2023-04-07T09:28:00;5.50;99.90
3752;DHT22;50827;47.014;7.652;2023-04-07T09:30:29;5.50;99.90
3752;DHT22;50827;47.014;7.652;2023-04-07T09:32:56;5.50;99.90
3752;DHT22;50827;47.014;7.652;2023-04-07T09:35:23;5.50;99.90
3752;DHT22;50827;47.014;7.652;2023-04-07T09:38:07;5.60;99.90
3752;DHT22;50827;47.014;7.652;2023-04-07T09:40:37;5.60;99.90
3752;DHT22;50827;47.014;7.652;2023-04-07T09:43:05;5.70;99.90
3752;DHT22;50827;47.014;7.652;2023-04-07T09:45:32;5.70;99.90
3752;DHT22;50827;47.014;7.652;2023-04-07T09:48:27;5.90;99.90
3752;DHT22;50827;47.014;7.652;2023-04-07T09:51:14;6.00;99.90
3752;DHT22;50827;47.014;7.652;2023-04-07T09:53:43;5.90;99.90
3752;DHT22;50827;47.014;7.652;2023-04-07T09:56:10;5.80;99.90
3752;DHT22;50827;47.014;7.652;2023-04-07T09:58:37;5.70;99.90
3752;DHT22;50827;47.014;7.652;2023-04-07T10:01:09;5.60;99.90
3752;DHT22;50827;47.014;7.652;2023-04-07T10:03:37;5.60;99.90
3752;DHT22;50827;47.014;7.652;2023-04-07T10:06:05;5.60;99.90
3752;DHT22;50827;47.014;7.652;2023-04-07T10:08:34;5.60;99.90
3752;DHT22;50827;47.014;7.652;2023-04-07T10:11:03;5.70;99.90
3752;DHT22;50827;47.014;7.652;2023-04-07T10:13:30;5.70;99.90
3752;DHT22;50827;47.014;7.652;2023-04-07T10:15:58;5.70;99.90
3752;DHT22;50827;47.014;7.652;2023-04-07T10:18:28;5.70;99.90
3752;DHT22;50827;47.014;7.652;2023-04-07T10:21:00;5.70;99.90
3752;DHT22;50827;47.014;7.652;2023-04-07T10:23:58;5.70;99.90
3752;DHT22;50827;47.014;7.652;2023-04-07T10:26:29;5.70;99.90
3752;DHT22;50827;47.014;7.652;2023-04-07T10:29:01;5.70;99.90
3752;DHT22;50827;47.014;7.652;2023-04-07T10:31:30;5.80;99.90
3752;DHT22;50827;47.014;7.652;2023-04-07T10:33:57;5.90;99.90
3752;DHT22;50827;47.014;7.652;2023-04-07T10:36:24;6.00;99.90
3752;DHT22;50827;47.014;7.652;2023-04-07T10:41:38;6.10;99.90
3752;DHT22;50827;47.014;7.652;2023-04-07T10:44:06;6.20;99.90
3752;DHT22;50827;47.014;7.652;2023-04-07T10:47:03;6.40;99.90
3752;DHT22;50827;47.014;7.652;2023-04-07T10:49:32;6.50;99.90
3752;DHT22;50827;47.014;7.652;2023-04-07T10:54:39;6.60;99.90
3752;DHT22;50827;47.014;7.652;2023-04-07T10:57:07;6.70;99.90
3752;DHT22;50827;47.014;7.652;2023-04-07T11:00:24;6.90;99.90
3752;DHT22;50827;47.014;7.652;2023-04-07T11:04:51;7.00;99.90
3752;DHT22;50827;47.014;7.652;2023-04-07T11:07:18;7.10;99.90
3752;DHT22;50827;47.014;7.652;2023-04-07T11:09:46;7.20;99.90
3752;DHT22;50827;47.014;7.652;2023-04-07T11:12:23;7.30;99.90
3752;DHT22;50827;47.014;7.652;2023-04-07T11:14:50;7.30;99.90
3752;DHT22;50827;47.014;7.652;2023-04-07T11:17:16;7.30;99.90
3752;DHT22;50827;47.014;7.652;2023-04-07T11:19:53;7.30;99.90
3752;DHT22;50827;47.014;7.652;2023-04-07T11:22:20;7.40;99.90
3752;DHT22;50827;47.014;7.652;2023-04-07T11:24:49;7.30;99.90
3752;DHT22;50827;47.014;7.652;2023-04-07T11:27:17;7.30;99.90
3752;DHT22;50827;47.014;7.652;2023-04-07T11:29:43;7.30;99.90
3752;DHT22;50827;47.014;7.652;2023-04-07T11:32:11;7.40;99.90
3752;DHT22;50827;47.014;7.652;2023-04-07T11:34:38;7.40;99.90
3752;DHT22;50827;47.014;7.652;2023-04-07T11:37:25;7.50;99.90
3752;DHT22;50827;47.014;7.652;2023-04-07T11:39:55;7.60;99.90
3752;DHT22;50827;47.014;7.652;2023-04-07T11:42:32;7.70;99.90
3752;DHT22;50827;47.014;7.652;2023-04-07T11:44:59;7.70;99.90
3752;DHT22;50827;47.014;7.652;2023-04-07T11:47:36;7.80;99.90
3752;DHT22;50827;47.014;7.652;2023-04-07T11:50:04;8.10;99.90
3752;DHT22;50827;47.014;7.652;2023-04-07T11:52:46;8.30;99.90
3752;DHT22;50827;47.014;7.652;2023-04-07T11:55:20;8.40;99.90
3752;DHT22;50827;47.014;7.652;2023-04-07T11:57:50;8.50;99.90
3752;DHT22;50827;47.014;7.652;2023-04-07T12:00:18;8.50;99.90
3752;DHT22;50827;47.014;7.652;2023-04-07T12:02:45;8.50;99.90
3752;DHT22;50827;47.014;7.652;2023-04-07T12:05:13;8.60;99.90
3752;DHT22;50827;47.014;7.652;2023-04-07T12:07:51;8.70;99.90
3752;DHT22;50827;47.014;7.652;2023-04-07T12:10:19;8.70;99.90
3752;DHT22;50827;47.014;7.652;2023-04-07T12:12:47;8.70;99.90
3752;DHT22;50827;47.014;7.652;2023-04-07T12:15:14;8.80;99.90
3752;DHT22;50827;47.014;7.652;2023-04-07T12:17:45;8.90;99.90
3752;DHT22;50827;47.014;7.652;2023-04-07T12:20:13;8.90;99.90
3752;DHT22;50827;47.014;7.652;2023-04-07T12:22:40;9.00;99.90
3752;DHT22;50827;47.014;7.652;2023-04-07T12:25:07;8.90;99.90
3752;DHT22;50827;47.014;7.652;2023-04-07T12:27:34;8.90;99.90
3752;DHT22;50827;47.014;7.652;2023-04-07T12:30:09;8.90;99.90
3752;DHT22;50827;47.014;7.652;2023-04-07T12:32:36;8.90;99.90
3752;DHT22;50827;47.014;7.652;2023-04-07T12:35:04;8.90;99.90
3752;DHT22;50827;47.014;7.652;2023-04-07T12:37:31;8.90;99.90
3752;DHT22;50827;47.014;7.652;2023-04-07T12:39:58;8.90;99.90
3752;DHT22;50827;47.014;7.652;2023-04-07T12:42:25;8.80;99.90
3752;DHT22;50827;47.014;7.652;2023-04-07T12:44:52;8.80;99.90
3752;DHT22;50827;47.014;7.652;2023-04-07T12:47:19;8.70;99.90
3752;DHT22;50827;47.014;7.652;2023-04-07T12:49:46;8.90;99.90
3752;DHT22;50827;47.014;7.652;2023-04-07T12:52:15;9.00;99.90
3752;DHT22;50827;47.014;7.652;2023-04-07T12:54:42;9.10;99.90
3752;DHT22;50827;47.014;7.652;2023-04-07T12:57:10;9.20;99.90
3752;DHT22;50827;47.014;7.652;2023-04-07T12:59:37;9.30;99.90
3752;DHT22;50827;47.014;7.652;2023-04-07T13:02:03;9.30;99.90
3752;DHT22;50827;47.014;7.652;2023-04-07T13:04:30;9.30;99.90
3752;DHT22;50827;47.014;7.652;2023-04-07T13:06:57;9.30;99.90
3752;DHT22;50827;47.014;7.652;2023-04-07T13:09:25;9.30;99.90
3752;DHT22;50827;47.014;7.652;2023-04-07T13:11:51;9.30;99.90
3752;DHT22;50827;47.014;7.652;2023-04-07T13:14:18;9.30;99.90
3752;DHT22;50827;47.014;7.652;2023-04-07T13:16:45;9.30;99.90
3752;DHT22;50827;47.014;7.652;2023-04-07T13:19:11;9.40;99.90
3752;DHT22;50827;47.014;7.652;2023-04-07T13:21:38;9.50;99.90
3752;DHT22;50827;47.014;7.652;2023-04-07T13:24:07;9.60;99.90
3752;DHT22;50827;47.014;7.652;2023-04-07T13:26:34;9.70;99.90
3752;DHT22;50827;47.014;7.652;2023-04-07T13:29:01;9.70;99.90
3752;DHT22;50827;47.014;7.652;2023-04-07T13:31:28;9.80;99.90
3752;DHT22;50827;47.014;7.652;2023-04-07T13:33:55;9.80;99.90
3752;DHT22;50827;47.014;7.652;2023-04-07T13:36:23;9.80;99.90
3752;DHT22;50827;47.014;7.652;2023-04-07T13:38:50;9.80;99.90
3752;DHT22;50827;47.014;7.652;2023-04-07T13:41:16;9.80;99.90
3752;DHT22;50827;47.014;7.652;2023-04-07T13:43:43;9.80;99.90
3752;DHT22;50827;47.014;7.652;2023-04-07T13:46:12;9.70;99.90
3752;DHT22;50827;47.014;7.652;2023-04-07T13:48:53;9.70;99.90
3752;DHT22;50827;47.014;7.652;2023-04-07T13:51:20;9.70;99.90
3752;DHT22;50827;47.014;7.652;2023-04-07T13:53:47;9.70;99.90
3752;DHT22;50827;47.014;7.652;2023-04-07T13:56:14;9.80;99.90
3752;DHT22;50827;47.014;7.652;2023-04-07T13:58:41;9.80;99.90
3752;DHT22;50827;47.014;7.652;2023-04-07T14:01:08;9.70;99.90
3752;DHT22;50827;47.014;7.652;2023-04-07T14:03:35;9.70;99.90
3752;DHT22;50827;47.014;7.652;2023-04-07T14:06:03;9.80;99.90
3752;DHT22;50827;47.014;7.652;2023-04-07T14:08:29;9.70;99.90
3752;DHT22;50827;47.014;7.652;2023-04-07T14:10:56;9.70;99.90
3752;DHT22;50827;47.014;7.652;2023-04-07T14:13:23;9.70;99.90
3752;DHT22;50827;47.014;7.652;2023-04-07T14:15:50;9.70;99.90
3752;DHT22;50827;47.014;7.652;2023-04-07T14:18:18;9.70;99.90
3752;DHT22;50827;47.014;7.652;2023-04-07T14:20:45;9.60;99.90
3752;DHT22;50827;47.014;7.652;2023-04-07T14:23:12;9.50;99.90
3752;DHT22;50827;47.014;7.652;2023-04-07T14:25:46;9.40;99.90
3752;DHT22;50827;47.014;7.652;2023-04-07T14:28:13;9.50;99.90
3752;DHT22;50827;47.014;7.652;2023-04-07T14:30:39;9.50;99.90
3752;DHT22;50827;47.014;7.652;2023-04-07T14:33:06;9.50;99.90
3752;DHT22;50827;47.014;7.652;2023-04-07T14:35:36;9.40;99.90
3752;DHT22;50827;47.014;7.652;2023-04-07T14:38:03;9.30;99.90
3752;DHT22;50827;47.014;7.652;2023-04-07T14:40:30;9.30;99.90
3752;DHT22;50827;47.014;7.652;2023-04-07T14:42:57;9.30;99.90
3752;DHT22;50827;47.014;7.652;2023-04-07T14:45:27;9.40;99.90
3752;DHT22;50827;47.014;7.652;2023-04-07T14:47:54;9.30;99.90
3752;DHT22;50827;47.014;7.652;2023-04-07T14:50:22;9.30;99.90
3752;DHT22;50827;47.014;7.652;2023-04-07T14:52:49;9.30;99.90
3752;DHT22;50827;47.014;7.652;2023-04-07T14:55:16;9.40;99.90
3752;DHT22;50827;47.014;7.652;2023-04-07T14:57:43;9.50;99.90
3752;DHT22;50827;47.014;7.652;2023-04-07T15:00:11;9.50;99.90
3752;DHT22;50827;47.014;7.652;2023-04-07T15:02:37;9.60;99.90
3752;DHT22;50827;47.014;7.652;2023-04-07T15:05:06;9.50;99.90
3752;DHT22;50827;47.014;7.652;2023-04-07T15:07:34;9.60;99.90
3752;DHT22;50827;47.014;7.652;2023-04-07T15:10:00;9.60;99.90
3752;DHT22;50827;47.014;7.652;2023-04-07T15:12:27;9.70;99.90
3752;DHT22;50827;47.014;7.652;2023-04-07T15:14:56;9.70;99.90
3752;DHT22;50827;47.014;7.652;2023-04-07T15:17:23;9.70;99.90
3752;DHT22;50827;47.014;7.652;2023-04-07T15:20:08;9.80;99.90
3752;DHT22;50827;47.014;7.652;2023-04-07T15:22:35;9.90;99.90
3752;DHT22;50827;47.014;7.652;2023-04-07T15:25:02;10.00;99.90
3752;DHT22;50827;47.014;7.652;2023-04-07T15:27:29;10.10;99.90
3752;DHT22;50827;47.014;7.652;2023-04-07T15:29:55;10.20;99.90
3752;DHT22;50827;47.014;7.652;2023-04-07T15:32:22;10.20;99.90
3752;DHT22;50827;47.014;7.652;2023-04-07T15:34:49;10.30;99.90
3752;DHT22;50827;47.014;7.652;2023-04-07T15:37:15;10.30;99.90
3752;DHT22;50827;47.014;7.652;2023-04-07T15:39:45;10.40;99.90
3752;DHT22;50827;47.014;7.652;2023-04-07T15:42:11;10.40;99.90
3752;DHT22;50827;47.014;7.652;2023-04-07T15:44:38;10.40;99.90
3752;DHT22;50827;47.014;7.652;2023-04-07T15:47:05;10.40;99.90
3752;DHT22;50827;47.014;7.652;2023-04-07T15:49:33;10.50;99.90
3752;DHT22;50827;47.014;7.652;2023-04-07T15:51:59;10.50;99.90
3752;DHT22;50827;47.014;7.652;2023-04-07T15:54:29;10.50;99.90
3752;DHT22;50827;47.014;7.652;2023-04-07T15:56:56;10.60;99.90
3752;DHT22;50827;47.014;7.652;2023-04-07T15:59:23;10.50;99.90
3752;DHT22;50827;47.014;7.652;2023-04-07T16:01:50;10.50;99.90
3752;DHT22;50827;47.014;7.652;2023-04-07T16:04:17;10.50;99.90
3752;DHT22;50827;47.014;7.652;2023-04-07T16:06:44;10.40;99.90
3752;DHT22;50827;47.014;7.652;2023-04-07T16:09:11;10.50;99.90
3752;DHT22;50827;47.014;7.652;2023-04-07T16:11:38;10.60;99.90
3752;DHT22;50827;47.014;7.652;2023-04-07T16:14:05;10.70;99.90
3752;DHT22;50827;47.014;7.652;2023-04-07T16:16:34;10.60;99.90
3752;DHT22;50827;47.014;7.652;2023-04-07T16:19:02;10.60;99.90
3752;DHT22;50827;47.014;7.652;2023-04-07T16:21:29;10.60;99.90
3752;DHT22;50827;47.014;7.652;2023-04-07T16:23:56;10.60;99.90
3752;DHT22;50827;47.014;7.652;2023-04-07T16:26:23;10.60;99.90